sensor_id;sensor_type;location;lat;lon;timestamp;P1;durP1;ratioP1;P2;durP2;ratioP2
20241;SDS011;10279;46.388;8.116;2022-11-20T00:01:49;1.63;;;0.93;;
20241;SDS011;10279;46.388;8.116;2022-11-20T00:04:17;1.47;;;0.90;;
20241;SDS011;10279;46.388;8.116;2022-11-20T00:06:44;2.57;;;0.83;;
20241;SDS011;10279;46.388;8.116;2022-11-20T00:09:11;0.90;;;0.83;;
20241;SDS011;10279;46.388;8.116;2022-11-20T00:11:38;0.90;;;0.73;;
20241;SDS011;10279;46.388;8.116;2022-11-20T00:14:06;1.50;;;0.87;;
20241;SDS011;10279;46.388;8.116;2022-11-20T00:16:33;1.10;;;0.90;;
20241;SDS011;10279;46.388;8.116;2022-11-20T00:19:01;1.20;;;0.83;;
20241;SDS011;10279;46.388;8.116;2022-11-20T00:21:28;1.20;;;0.90;;
20241;SDS011;10279;46.388;8.116;2022-11-20T00:23:56;2.37;;;0.90;;
20241;SDS011;10279;46.388;8.116;2022-11-20T00:26:25;1.27;;;0.80;;
20241;SDS011;10279;46.388;8.116;2022-11-20T00:28:53;1.17;;;0.80;;
20241;SDS011;10279;46.388;8.116;2022-11-20T00:31:21;1.17;;;0.90;;
20241;SDS011;10279;46.388;8.116;2022-11-20T00:33:48;1.00;;;0.80;;
20241;SDS011;10279;46.388;8.116;2022-11-20T00:36:20;0.60;;;0.60;;
20241;SDS011;10279;46.388;8.116;2022-11-20T00:38:52;1.93;;;0.80;;
20241;SDS011;10279;46.388;8.116;2022-11-20T00:41:19;0.83;;;0.83;;
20241;SDS011;10279;46.388;8.116;2022-11-20T00:43:47;3.57;;;1.23;;
20241;SDS011;10279;46.388;8.116;2022-11-20T00:46:15;1.33;;;1.00;;
20241;SDS011;10279;46.388;8.116;2022-11-20T00:48:43;0.60;;;0.60;;
20241;SDS011;10279;46.388;8.116;2022-11-20T00:51:12;1.30;;;0.80;;
20241;SDS011;10279;46.388;8.116;2022-11-20T00:53:40;1.23;;;0.80;;
20241;SDS011;10279;46.388;8.116;2022-11-20T00:56:09;1.00;;;0.73;;
20241;SDS011;10279;46.388;8.116;2022-11-20T00:58:37;0.83;;;0.70;;
20241;SDS011;10279;46.388;8.116;2022-11-20T01:03:33;1.83;;;0.90;;
20241;SDS011;10279;46.388;8.116;2022-11-20T01:06:01;0.80;;;0.80;;
20241;SDS011;10279;46.388;8.116;2022-11-20T01:08:30;1.00;;;0.70;;
20241;SDS011;10279;46.388;8.116;2022-11-20T01:11:11;0.90;;;0.83;;
20241;SDS011;10279;46.388;8.116;2022-11-20T01:13:39;0.93;;;0.80;;
20241;SDS011;10279;46.388;8.116;2022-11-20T01:18:35;1.03;;;0.93;;
20241;SDS011;10279;46.388;8.116;2022-11-20T01:21:03;0.67;;;0.67;;
20241;SDS011;10279;46.388;8.116;2022-11-20T01:23:32;1.17;;;0.70;;
20241;SDS011;10279;46.388;8.116;2022-11-20T01:26:00;1.93;;;1.17;;
20241;SDS011;10279;46.388;8.116;2022-11-20T01:28:29;1.30;;;1.00;;
20241;SDS011;10279;46.388;8.116;2022-11-20T01:30:56;1.07;;;0.83;;
20241;SDS011;10279;46.388;8.116;2022-11-20T01:33:24;1.50;;;0.77;;
20241;SDS011;10279;46.388;8.116;2022-11-20T01:35:52;1.00;;;0.80;;
20241;SDS011;10279;46.388;8.116;2022-11-20T01:38:19;0.77;;;0.70;;
20241;SDS011;10279;46.388;8.116;2022-11-20T01:40:54;1.27;;;0.80;;
20241;SDS011;10279;46.388;8.116;2022-11-20T01:43:22;3.13;;;0.87;;
20241;SDS011;10279;46.388;8.116;2022-11-20T01:48:19;1.40;;;0.70;;
20241;SDS011;10279;46.388;8.116;2022-11-20T01:50:48;1.40;;;0.80;;
20241;SDS011;10279;46.388;8.116;2022-11-20T01:53:16;0.87;;;0.63;;
20241;SDS011;10279;46.388;8.116;2022-11-20T01:55:47;0.70;;;0.60;;
20241;SDS011;10279;46.388;8.116;2022-11-20T01:58:16;1.00;;;0.63;;
20241;SDS011;10279;46.388;8.116;2022-11-20T02:00:46;0.67;;;0.67;;
20241;SDS011;10279;46.388;8.116;2022-11-20T02:03:15;0.80;;;0.77;;
20241;SDS011;10279;46.388;8.116;2022-11-20T02:08:28;2.40;;;0.80;;
20241;SDS011;10279;46.388;8.116;2022-11-20T02:10:56;1.47;;;0.67;;
20241;SDS011;10279;46.388;8.116;2022-11-20T02:13:23;1.17;;;0.70;;
20241;SDS011;10279;46.388;8.116;2022-11-20T02:16:12;1.37;;;0.70;;
20241;SDS011;10279;46.388;8.116;2022-11-20T02:18:40;2.13;;;0.67;;
20241;SDS011;10279;46.388;8.116;2022-11-20T02:23:56;0.80;;;0.60;;
20241;SDS011;10279;46.388;8.116;2022-11-20T02:26:25;1.37;;;0.83;;
20241;SDS011;10279;46.388;8.116;2022-11-20T02:28:54;1.77;;;0.70;;
20241;SDS011;10279;46.388;8.116;2022-11-20T02:31:21;1.23;;;0.70;;
20241;SDS011;10279;46.388;8.116;2022-11-20T02:33:54;1.73;;;0.70;;
20241;SDS011;10279;46.388;8.116;2022-11-20T02:36:21;0.63;;;0.63;;
20241;SDS011;10279;46.388;8.116;2022-11-20T02:38:49;0.80;;;0.80;;
20241;SDS011;10279;46.388;8.116;2022-11-20T02:41:16;1.00;;;0.80;;
20241;SDS011;10279;46.388;8.116;2022-11-20T02:43:44;1.50;;;0.80;;
20241;SDS011;10279;46.388;8.116;2022-11-20T02:46:11;1.53;;;0.80;;
20241;SDS011;10279;46.388;8.116;2022-11-20T02:48:39;1.37;;;0.90;;
20241;SDS011;10279;46.388;8.116;2022-11-20T02:51:06;1.43;;;0.97;;
20241;SDS011;10279;46.388;8.116;2022-11-20T02:53:33;0.73;;;0.70;;
20241;SDS011;10279;46.388;8.116;2022-11-20T02:56:01;2.57;;;0.80;;
20241;SDS011;10279;46.388;8.116;2022-11-20T02:58:28;0.63;;;0.63;;
20241;SDS011;10279;46.388;8.116;2022-11-20T03:00:55;2.93;;;0.93;;
20241;SDS011;10279;46.388;8.116;2022-11-20T03:03:23;0.70;;;0.70;;
20241;SDS011;10279;46.388;8.116;2022-11-20T03:05:50;1.30;;;0.73;;
20241;SDS011;10279;46.388;8.116;2022-11-20T03:08:18;1.53;;;0.80;;
20241;SDS011;10279;46.388;8.116;2022-11-20T03:10:45;1.90;;;0.80;;
20241;SDS011;10279;46.388;8.116;2022-11-20T03:13:12;0.97;;;0.77;;
20241;SDS011;10279;46.388;8.116;2022-11-20T03:15:40;1.40;;;0.80;;
20241;SDS011;10279;46.388;8.116;2022-11-20T03:18:07;0.97;;;0.80;;
20241;SDS011;10279;46.388;8.116;2022-11-20T03:20:34;0.67;;;0.63;;
20241;SDS011;10279;46.388;8.116;2022-11-20T03:23:02;1.20;;;0.83;;
20241;SDS011;10279;46.388;8.116;2022-11-20T03:25:29;1.47;;;0.93;;
20241;SDS011;10279;46.388;8.116;2022-11-20T03:27:57;2.10;;;0.70;;
20241;SDS011;10279;46.388;8.116;2022-11-20T03:30:24;1.67;;;1.00;;
20241;SDS011;10279;46.388;8.116;2022-11-20T03:32:56;1.17;;;0.90;;
20241;SDS011;10279;46.388;8.116;2022-11-20T03:35:23;1.60;;;0.93;;
20241;SDS011;10279;46.388;8.116;2022-11-20T03:37:52;1.03;;;0.60;;
20241;SDS011;10279;46.388;8.116;2022-11-20T03:40:19;1.13;;;1.00;;
20241;SDS011;10279;46.388;8.116;2022-11-20T03:42:46;3.23;;;0.70;;
20241;SDS011;10279;46.388;8.116;2022-11-20T03:45:17;1.43;;;0.80;;
20241;SDS011;10279;46.388;8.116;2022-11-20T03:47:45;0.70;;;0.60;;
20241;SDS011;10279;46.388;8.116;2022-11-20T03:50:13;0.53;;;0.50;;
20241;SDS011;10279;46.388;8.116;2022-11-20T03:52:40;0.60;;;0.60;;
20241;SDS011;10279;46.388;8.116;2022-11-20T03:55:08;1.23;;;0.70;;
20241;SDS011;10279;46.388;8.116;2022-11-20T03:57:35;1.40;;;0.90;;
20241;SDS011;10279;46.388;8.116;2022-11-20T04:00:03;0.93;;;0.77;;
20241;SDS011;10279;46.388;8.116;2022-11-20T04:02:31;1.10;;;0.70;;
20241;SDS011;10279;46.388;8.116;2022-11-20T04:04:58;2.00;;;0.80;;
20241;SDS011;10279;46.388;8.116;2022-11-20T04:07:26;0.83;;;0.50;;
20241;SDS011;10279;46.388;8.116;2022-11-20T04:09:53;1.17;;;0.90;;
20241;SDS011;10279;46.388;8.116;2022-11-20T04:12:20;0.60;;;0.60;;
20241;SDS011;10279;46.388;8.116;2022-11-20T04:14:48;0.93;;;0.80;;
20241;SDS011;10279;46.388;8.116;2022-11-20T04:17:15;0.70;;;0.63;;
20241;SDS011;10279;46.388;8.116;2022-11-20T04:19:42;0.73;;;0.60;;
20241;SDS011;10279;46.388;8.116;2022-11-20T04:22:10;0.73;;;0.70;;
20241;SDS011;10279;46.388;8.116;2022-11-20T04:24:38;1.90;;;0.87;;
20241;SDS011;10279;46.388;8.116;2022-11-20T04:27:05;1.33;;;1.03;;
20241;SDS011;10279;46.388;8.116;2022-11-20T04:29:33;1.07;;;0.70;;
20241;SDS011;10279;46.388;8.116;2022-11-20T04:32:00;1.60;;;0.80;;
20241;SDS011;10279;46.388;8.116;2022-11-20T04:34:28;0.93;;;0.60;;
20241;SDS011;10279;46.388;8.116;2022-11-20T04:36:55;0.67;;;0.67;;
20241;SDS011;10279;46.388;8.116;2022-11-20T04:39:22;2.10;;;0.70;;
20241;SDS011;10279;46.388;8.116;2022-11-20T04:41:50;1.80;;;0.90;;
20241;SDS011;10279;46.388;8.116;2022-11-20T04:44:37;2.70;;;1.00;;
20241;SDS011;10279;46.388;8.116;2022-11-20T04:47:05;1.10;;;1.00;;
20241;SDS011;10279;46.388;8.116;2022-11-20T04:49:32;2.23;;;0.97;;
20241;SDS011;10279;46.388;8.116;2022-11-20T04:52:00;1.07;;;0.93;;
20241;SDS011;10279;46.388;8.116;2022-11-20T04:54:27;1.30;;;1.03;;
20241;SDS011;10279;46.388;8.116;2022-11-20T04:56:55;1.67;;;1.00;;
20241;SDS011;10279;46.388;8.116;2022-11-20T04:59:22;3.77;;;1.30;;
20241;SDS011;10279;46.388;8.116;2022-11-20T05:01:50;1.10;;;1.00;;
20241;SDS011;10279;46.388;8.116;2022-11-20T05:04:18;1.17;;;0.93;;
20241;SDS011;10279;46.388;8.116;2022-11-20T05:06:45;0.90;;;0.90;;
20241;SDS011;10279;46.388;8.116;2022-11-20T05:09:12;1.33;;;1.07;;
20241;SDS011;10279;46.388;8.116;2022-11-20T05:11:40;1.30;;;1.10;;
20241;SDS011;10279;46.388;8.116;2022-11-20T05:14:07;2.40;;;1.20;;
20241;SDS011;10279;46.388;8.116;2022-11-20T05:16:35;1.43;;;1.17;;
20241;SDS011;10279;46.388;8.116;2022-11-20T05:19:02;1.83;;;1.17;;
20241;SDS011;10279;46.388;8.116;2022-11-20T05:21:30;1.47;;;1.20;;
20241;SDS011;10279;46.388;8.116;2022-11-20T05:23:58;1.07;;;0.93;;
20241;SDS011;10279;46.388;8.116;2022-11-20T05:26:26;1.37;;;1.00;;
20241;SDS011;10279;46.388;8.116;2022-11-20T05:28:53;0.80;;;0.80;;
20241;SDS011;10279;46.388;8.116;2022-11-20T05:31:21;0.77;;;0.77;;
20241;SDS011;10279;46.388;8.116;2022-11-20T05:33:53;2.37;;;0.73;;
20241;SDS011;10279;46.388;8.116;2022-11-20T05:36:20;1.00;;;1.00;;
20241;SDS011;10279;46.388;8.116;2022-11-20T05:38:48;1.20;;;1.10;;
20241;SDS011;10279;46.388;8.116;2022-11-20T05:41:17;1.73;;;0.67;;
20241;SDS011;10279;46.388;8.116;2022-11-20T05:43:45;1.00;;;0.90;;
20241;SDS011;10279;46.388;8.116;2022-11-20T05:46:14;1.90;;;1.43;;
20241;SDS011;10279;46.388;8.116;2022-11-20T05:48:42;1.47;;;1.20;;
20241;SDS011;10279;46.388;8.116;2022-11-20T05:51:10;1.97;;;1.50;;
20241;SDS011;10279;46.388;8.116;2022-11-20T05:53:38;2.83;;;1.53;;
20241;SDS011;10279;46.388;8.116;2022-11-20T05:56:14;3.47;;;1.60;;
20241;SDS011;10279;46.388;8.116;2022-11-20T05:58:41;2.13;;;1.30;;
20241;SDS011;10279;46.388;8.116;2022-11-20T06:03:46;0.90;;;0.90;;
20241;SDS011;10279;46.388;8.116;2022-11-20T06:06:14;2.50;;;1.10;;
20241;SDS011;10279;46.388;8.116;2022-11-20T06:08:42;2.40;;;1.20;;
20241;SDS011;10279;46.388;8.116;2022-11-20T06:11:10;2.27;;;1.40;;
20241;SDS011;10279;46.388;8.116;2022-11-20T06:13:39;1.27;;;1.10;;
20241;SDS011;10279;46.388;8.116;2022-11-20T06:16:08;2.40;;;1.37;;
20241;SDS011;10279;46.388;8.116;2022-11-20T06:18:35;3.47;;;1.63;;
20241;SDS011;10279;46.388;8.116;2022-11-20T06:21:06;2.10;;;1.80;;
20241;SDS011;10279;46.388;8.116;2022-11-20T06:23:34;1.40;;;1.30;;
20241;SDS011;10279;46.388;8.116;2022-11-20T06:29:01;1.37;;;1.17;;
20241;SDS011;10279;46.388;8.116;2022-11-20T06:31:29;1.13;;;1.03;;
20241;SDS011;10279;46.388;8.116;2022-11-20T06:33:59;2.27;;;1.20;;
20241;SDS011;10279;46.388;8.116;2022-11-20T06:36:26;1.10;;;0.97;;
20241;SDS011;10279;46.388;8.116;2022-11-20T06:38:53;1.00;;;0.90;;
20241;SDS011;10279;46.388;8.116;2022-11-20T06:41:21;1.07;;;0.97;;
20241;SDS011;10279;46.388;8.116;2022-11-20T06:43:49;2.90;;;1.60;;
20241;SDS011;10279;46.388;8.116;2022-11-20T06:46:17;3.13;;;1.10;;
20241;SDS011;10279;46.388;8.116;2022-11-20T06:48:45;1.43;;;1.10;;
20241;SDS011;10279;46.388;8.116;2022-11-20T06:51:15;2.57;;;1.13;;
20241;SDS011;10279;46.388;8.116;2022-11-20T06:53:43;2.30;;;1.20;;
20241;SDS011;10279;46.388;8.116;2022-11-20T06:56:10;2.53;;;1.40;;
20241;SDS011;10279;46.388;8.116;2022-11-20T06:58:37;1.50;;;1.40;;
20241;SDS011;10279;46.388;8.116;2022-11-20T07:01:06;1.83;;;1.23;;
20241;SDS011;10279;46.388;8.116;2022-11-20T07:03:34;2.10;;;1.40;;
20241;SDS011;10279;46.388;8.116;2022-11-20T07:06:02;1.70;;;1.33;;
20241;SDS011;10279;46.388;8.116;2022-11-20T07:08:29;1.83;;;1.33;;
20241;SDS011;10279;46.388;8.116;2022-11-20T07:10:58;1.63;;;1.13;;
20241;SDS011;10279;46.388;8.116;2022-11-20T07:13:26;1.00;;;0.90;;
20241;SDS011;10279;46.388;8.116;2022-11-20T07:15:53;2.00;;;1.57;;
20241;SDS011;10279;46.388;8.116;2022-11-20T07:18:21;1.00;;;0.90;;
20241;SDS011;10279;46.388;8.116;2022-11-20T07:20:51;1.30;;;1.10;;
20241;SDS011;10279;46.388;8.116;2022-11-20T07:23:18;1.63;;;1.20;;
20241;SDS011;10279;46.388;8.116;2022-11-20T07:25:46;1.97;;;1.13;;
20241;SDS011;10279;46.388;8.116;2022-11-20T07:28:13;1.80;;;1.37;;
20241;SDS011;10279;46.388;8.116;2022-11-20T07:30:41;1.83;;;1.30;;
20241;SDS011;10279;46.388;8.116;2022-11-20T07:33:08;2.50;;;1.47;;
20241;SDS011;10279;46.388;8.116;2022-11-20T07:35:35;3.07;;;1.57;;
20241;SDS011;10279;46.388;8.116;2022-11-20T07:38:04;2.20;;;1.70;;
20241;SDS011;10279;46.388;8.116;2022-11-20T07:40:31;1.70;;;1.60;;
20241;SDS011;10279;46.388;8.116;2022-11-20T07:42:59;2.03;;;1.80;;
20241;SDS011;10279;46.388;8.116;2022-11-20T07:45:26;2.77;;;2.33;;
20241;SDS011;10279;46.388;8.116;2022-11-20T07:47:54;3.70;;;2.50;;
20241;SDS011;10279;46.388;8.116;2022-11-20T07:50:21;4.83;;;2.93;;
20241;SDS011;10279;46.388;8.116;2022-11-20T07:52:48;2.20;;;1.80;;
20241;SDS011;10279;46.388;8.116;2022-11-20T07:55:19;5.37;;;2.53;;
20241;SDS011;10279;46.388;8.116;2022-11-20T07:57:53;2.93;;;1.77;;
20241;SDS011;10279;46.388;8.116;2022-11-20T08:00:21;4.03;;;2.20;;
20241;SDS011;10279;46.388;8.116;2022-11-20T08:02:48;5.00;;;3.17;;
20241;SDS011;10279;46.388;8.116;2022-11-20T08:05:16;3.17;;;2.40;;
20241;SDS011;10279;46.388;8.116;2022-11-20T08:07:43;5.97;;;2.03;;
20241;SDS011;10279;46.388;8.116;2022-11-20T08:10:12;8.07;;;3.50;;
20241;SDS011;10279;46.388;8.116;2022-11-20T08:12:43;4.17;;;3.00;;
20241;SDS011;10279;46.388;8.116;2022-11-20T08:15:29;6.00;;;3.73;;
20241;SDS011;10279;46.388;8.116;2022-11-20T08:18:04;4.43;;;2.53;;
20241;SDS011;10279;46.388;8.116;2022-11-20T08:20:52;7.90;;;4.83;;
20241;SDS011;10279;46.388;8.116;2022-11-20T08:23:19;3.77;;;2.30;;
20241;SDS011;10279;46.388;8.116;2022-11-20T08:25:48;1.90;;;1.73;;
20241;SDS011;10279;46.388;8.116;2022-11-20T08:28:17;4.27;;;1.57;;
20241;SDS011;10279;46.388;8.116;2022-11-20T08:30:47;1.73;;;1.53;;
20241;SDS011;10279;46.388;8.116;2022-11-20T08:33:16;2.53;;;1.80;;
20241;SDS011;10279;46.388;8.116;2022-11-20T08:35:44;2.20;;;1.50;;
20241;SDS011;10279;46.388;8.116;2022-11-20T08:38:11;1.80;;;1.57;;
20241;SDS011;10279;46.388;8.116;2022-11-20T08:40:39;2.47;;;1.60;;
20241;SDS011;10279;46.388;8.116;2022-11-20T08:43:06;2.37;;;1.73;;
20241;SDS011;10279;46.388;8.116;2022-11-20T08:45:34;1.90;;;1.50;;
20241;SDS011;10279;46.388;8.116;2022-11-20T08:48:02;2.70;;;1.87;;
20241;SDS011;10279;46.388;8.116;2022-11-20T08:50:30;1.80;;;1.67;;
20241;SDS011;10279;46.388;8.116;2022-11-20T08:53:05;2.07;;;1.70;;
20241;SDS011;10279;46.388;8.116;2022-11-20T08:55:32;3.17;;;2.13;;
20241;SDS011;10279;46.388;8.116;2022-11-20T08:58:05;3.40;;;2.70;;
20241;SDS011;10279;46.388;8.116;2022-11-20T09:00:33;4.83;;;3.50;;
20241;SDS011;10279;46.388;8.116;2022-11-20T09:03:01;6.00;;;4.67;;
20241;SDS011;10279;46.388;8.116;2022-11-20T09:05:28;6.03;;;4.10;;
20241;SDS011;10279;46.388;8.116;2022-11-20T09:07:56;4.23;;;3.30;;
20241;SDS011;10279;46.388;8.116;2022-11-20T09:10:24;4.23;;;2.80;;
20241;SDS011;10279;46.388;8.116;2022-11-20T09:12:55;4.47;;;3.13;;
20241;SDS011;10279;46.388;8.116;2022-11-20T09:15:23;3.40;;;2.93;;
20241;SDS011;10279;46.388;8.116;2022-11-20T09:20:18;3.97;;;2.27;;
20241;SDS011;10279;46.388;8.116;2022-11-20T09:22:46;3.33;;;2.60;;
20241;SDS011;10279;46.388;8.116;2022-11-20T09:25:14;3.80;;;2.47;;
20241;SDS011;10279;46.388;8.116;2022-11-20T09:27:41;4.33;;;2.37;;
20241;SDS011;10279;46.388;8.116;2022-11-20T09:30:10;2.70;;;1.83;;
20241;SDS011;10279;46.388;8.116;2022-11-20T09:32:41;2.00;;;1.73;;
20241;SDS011;10279;46.388;8.116;2022-11-20T09:35:08;2.67;;;2.00;;
20241;SDS011;10279;46.388;8.116;2022-11-20T09:37:37;3.13;;;1.87;;
20241;SDS011;10279;46.388;8.116;2022-11-20T09:40:05;2.37;;;1.27;;
20241;SDS011;10279;46.388;8.116;2022-11-20T09:42:35;3.37;;;1.50;;
20241;SDS011;10279;46.388;8.116;2022-11-20T09:50:49;2.27;;;1.70;;
20241;SDS011;10279;46.388;8.116;2022-11-20T09:55:55;3.33;;;1.60;;
20241;SDS011;10279;46.388;8.116;2022-11-20T10:00:51;3.13;;;2.50;;
20241;SDS011;10279;46.388;8.116;2022-11-20T10:06:11;4.20;;;3.33;;
20241;SDS011;10279;46.388;8.116;2022-11-20T10:08:42;4.37;;;2.80;;
20241;SDS011;10279;46.388;8.116;2022-11-20T10:11:16;3.47;;;2.03;;
20241;SDS011;10279;46.388;8.116;2022-11-20T10:29:34;2.20;;;1.60;;
20241;SDS011;10279;46.388;8.116;2022-11-20T10:32:03;3.47;;;1.80;;
20241;SDS011;10279;46.388;8.116;2022-11-20T10:34:38;2.07;;;1.80;;
20241;SDS011;10279;46.388;8.116;2022-11-20T10:37:15;2.17;;;1.70;;
20241;SDS011;10279;46.388;8.116;2022-11-20T10:42:37;2.83;;;1.40;;
20241;SDS011;10279;46.388;8.116;2022-11-20T10:47:45;2.27;;;1.43;;
20241;SDS011;10279;46.388;8.116;2022-11-20T10:50:14;1.67;;;1.23;;
20241;SDS011;10279;46.388;8.116;2022-11-20T10:55:50;1.83;;;0.80;;
20241;SDS011;10279;46.388;8.116;2022-11-20T11:00:48;1.43;;;0.70;;
20241;SDS011;10279;46.388;8.116;2022-11-20T11:03:28;1.00;;;0.80;;
20241;SDS011;10279;46.388;8.116;2022-11-20T11:06:06;1.10;;;0.90;;
20241;SDS011;10279;46.388;8.116;2022-11-20T11:08:36;1.87;;;0.80;;
20241;SDS011;10279;46.388;8.116;2022-11-20T11:13:44;1.80;;;0.93;;
20241;SDS011;10279;46.388;8.116;2022-11-20T11:16:22;1.27;;;0.70;;
20241;SDS011;10279;46.388;8.116;2022-11-20T11:18:50;2.20;;;0.80;;
20241;SDS011;10279;46.388;8.116;2022-11-20T11:21:23;0.60;;;0.60;;
20241;SDS011;10279;46.388;8.116;2022-11-20T11:24:01;2.97;;;0.97;;
20241;SDS011;10279;46.388;8.116;2022-11-20T11:27:31;1.13;;;0.80;;
20241;SDS011;10279;46.388;8.116;2022-11-20T11:29:43;1.37;;;0.87;;
20241;SDS011;10279;46.388;8.116;2022-11-20T11:32:20;1.33;;;0.80;;
20241;SDS011;10279;46.388;8.116;2022-11-20T11:35:04;0.60;;;0.60;;
20241;SDS011;10279;46.388;8.116;2022-11-20T11:37:33;1.30;;;0.80;;
20241;SDS011;10279;46.388;8.116;2022-11-20T11:40:03;0.90;;;0.90;;
20241;SDS011;10279;46.388;8.116;2022-11-20T11:42:52;0.93;;;0.70;;
20241;SDS011;10279;46.388;8.116;2022-11-20T11:45:20;0.87;;;0.70;;
20241;SDS011;10279;46.388;8.116;2022-11-20T11:47:48;0.70;;;0.70;;
20241;SDS011;10279;46.388;8.116;2022-11-20T11:50:19;1.17;;;0.77;;
20241;SDS011;10279;46.388;8.116;2022-11-20T11:55:26;1.27;;;0.80;;
20241;SDS011;10279;46.388;8.116;2022-11-20T11:57:56;1.30;;;0.70;;
20241;SDS011;10279;46.388;8.116;2022-11-20T12:00:27;0.97;;;0.70;;
20241;SDS011;10279;46.388;8.116;2022-11-20T12:10:19;0.80;;;0.80;;
20241;SDS011;10279;46.388;8.116;2022-11-20T12:12:54;0.60;;;0.60;;
20241;SDS011;10279;46.388;8.116;2022-11-20T12:15:37;0.80;;;0.80;;
20241;SDS011;10279;46.388;8.116;2022-11-20T12:18:14;0.97;;;0.80;;
20241;SDS011;10279;46.388;8.116;2022-11-20T12:20:44;1.97;;;0.80;;
20241;SDS011;10279;46.388;8.116;2022-11-20T12:23:18;0.70;;;0.70;;
20241;SDS011;10279;46.388;8.116;2022-11-20T12:25:52;0.70;;;0.70;;
20241;SDS011;10279;46.388;8.116;2022-11-20T12:28:42;1.23;;;0.77;;
20241;SDS011;10279;46.388;8.116;2022-11-20T12:31:19;1.53;;;1.00;;
20241;SDS011;10279;46.388;8.116;2022-11-20T12:33:54;0.70;;;0.60;;
20241;SDS011;10279;46.388;8.116;2022-11-20T12:47:25;0.90;;;0.70;;
20241;SDS011;10279;46.388;8.116;2022-11-20T12:50:08;1.63;;;0.90;;
20241;SDS011;10279;46.388;8.116;2022-11-20T12:58:10;1.13;;;0.90;;
20241;SDS011;10279;46.388;8.116;2022-11-20T13:00:28;1.17;;;0.90;;
20241;SDS011;10279;46.388;8.116;2022-11-20T13:05:28;0.73;;;0.73;;
20241;SDS011;10279;46.388;8.116;2022-11-20T13:07:59;1.07;;;0.70;;
20241;SDS011;10279;46.388;8.116;2022-11-20T13:13:03;0.80;;;0.73;;
20241;SDS011;10279;46.388;8.116;2022-11-20T13:18:12;0.60;;;0.60;;
20241;SDS011;10279;46.388;8.116;2022-11-20T13:20:46;2.60;;;1.00;;
20241;SDS011;10279;46.388;8.116;2022-11-20T13:23:28;1.00;;;0.80;;
20241;SDS011;10279;46.388;8.116;2022-11-20T13:28:41;0.60;;;0.60;;
20241;SDS011;10279;46.388;8.116;2022-11-20T13:31:09;0.80;;;0.80;;
20241;SDS011;10279;46.388;8.116;2022-11-20T13:33:52;1.33;;;0.90;;
20241;SDS011;10279;46.388;8.116;2022-11-20T13:36:23;2.87;;;0.90;;
20241;SDS011;10279;46.388;8.116;2022-11-20T13:38:51;1.47;;;0.87;;
20241;SDS011;10279;46.388;8.116;2022-11-20T13:41:29;4.00;;;0.80;;
20241;SDS011;10279;46.388;8.116;2022-11-20T13:46:37;1.63;;;0.70;;
20241;SDS011;10279;46.388;8.116;2022-11-20T13:49:08;1.47;;;0.80;;
20241;SDS011;10279;46.388;8.116;2022-11-20T14:02:16;1.67;;;0.90;;
20241;SDS011;10279;46.388;8.116;2022-11-20T14:04:48;1.47;;;0.80;;
20241;SDS011;10279;46.388;8.116;2022-11-20T14:07:16;1.77;;;1.13;;
20241;SDS011;10279;46.388;8.116;2022-11-20T14:09:54;1.37;;;0.90;;
20241;SDS011;10279;46.388;8.116;2022-11-20T14:12:23;1.83;;;1.17;;
20241;SDS011;10279;46.388;8.116;2022-11-20T14:14:54;1.07;;;0.90;;
20241;SDS011;10279;46.388;8.116;2022-11-20T14:17:23;2.00;;;0.90;;
20241;SDS011;10279;46.388;8.116;2022-11-20T14:19:51;3.13;;;1.17;;
20241;SDS011;10279;46.388;8.116;2022-11-20T14:22:20;1.33;;;1.17;;
20241;SDS011;10279;46.388;8.116;2022-11-20T14:24:49;2.07;;;1.20;;
20241;SDS011;10279;46.388;8.116;2022-11-20T14:27:29;0.97;;;0.87;;
20241;SDS011;10279;46.388;8.116;2022-11-20T14:30:00;1.50;;;1.10;;
20241;SDS011;10279;46.388;8.116;2022-11-20T14:32:28;1.07;;;0.97;;
20241;SDS011;10279;46.388;8.116;2022-11-20T14:34:58;1.87;;;1.03;;
20241;SDS011;10279;46.388;8.116;2022-11-20T14:37:31;1.37;;;1.20;;
20241;SDS011;10279;46.388;8.116;2022-11-20T14:40:00;1.90;;;1.10;;
20241;SDS011;10279;46.388;8.116;2022-11-20T14:42:28;1.23;;;1.10;;
20241;SDS011;10279;46.388;8.116;2022-11-20T14:44:57;1.73;;;1.30;;
20241;SDS011;10279;46.388;8.116;2022-11-20T14:47:29;1.77;;;1.00;;
20241;SDS011;10279;46.388;8.116;2022-11-20T14:49:57;1.27;;;1.17;;
20241;SDS011;10279;46.388;8.116;2022-11-20T14:52:28;2.80;;;1.20;;
20241;SDS011;10279;46.388;8.116;2022-11-20T14:54:57;1.57;;;1.20;;
20241;SDS011;10279;46.388;8.116;2022-11-20T14:57:35;1.10;;;1.00;;
20241;SDS011;10279;46.388;8.116;2022-11-20T15:02:33;2.00;;;1.07;;
20241;SDS011;10279;46.388;8.116;2022-11-20T15:05:04;1.37;;;1.17;;
20241;SDS011;10279;46.388;8.116;2022-11-20T15:07:32;1.30;;;1.20;;
20241;SDS011;10279;46.388;8.116;2022-11-20T15:10:01;1.43;;;1.10;;
20241;SDS011;10279;46.388;8.116;2022-11-20T15:12:30;2.03;;;1.20;;
20241;SDS011;10279;46.388;8.116;2022-11-20T15:14:58;1.00;;;1.00;;
20241;SDS011;10279;46.388;8.116;2022-11-20T15:17:29;1.10;;;0.90;;
20241;SDS011;10279;46.388;8.116;2022-11-20T15:19:58;1.63;;;1.20;;
20241;SDS011;10279;46.388;8.116;2022-11-20T15:22:26;1.77;;;1.00;;
20241;SDS011;10279;46.388;8.116;2022-11-20T15:24:53;1.33;;;1.23;;
20241;SDS011;10279;46.388;8.116;2022-11-20T15:27:21;2.10;;;1.27;;
20241;SDS011;10279;46.388;8.116;2022-11-20T15:29:48;2.87;;;1.10;;
20241;SDS011;10279;46.388;8.116;2022-11-20T15:32:15;1.83;;;1.10;;
20241;SDS011;10279;46.388;8.116;2022-11-20T15:34:45;1.73;;;1.03;;
20241;SDS011;10279;46.388;8.116;2022-11-20T15:37:13;3.07;;;1.07;;
20241;SDS011;10279;46.388;8.116;2022-11-20T15:39:40;3.80;;;1.17;;
20241;SDS011;10279;46.388;8.116;2022-11-20T15:42:08;1.47;;;0.90;;
20241;SDS011;10279;46.388;8.116;2022-11-20T15:44:35;2.37;;;1.20;;
20241;SDS011;10279;46.388;8.116;2022-11-20T15:47:02;1.17;;;1.00;;
20241;SDS011;10279;46.388;8.116;2022-11-20T15:49:30;2.90;;;1.20;;
20241;SDS011;10279;46.388;8.116;2022-11-20T15:51:57;2.73;;;1.20;;
20241;SDS011;10279;46.388;8.116;2022-11-20T15:54:24;3.10;;;0.97;;
20241;SDS011;10279;46.388;8.116;2022-11-20T15:56:52;1.93;;;1.47;;
20241;SDS011;10279;46.388;8.116;2022-11-20T15:59:19;1.90;;;1.30;;
20241;SDS011;10279;46.388;8.116;2022-11-20T16:01:47;1.57;;;1.10;;
20241;SDS011;10279;46.388;8.116;2022-11-20T16:04:15;1.77;;;1.10;;
20241;SDS011;10279;46.388;8.116;2022-11-20T16:06:43;2.30;;;1.10;;
20241;SDS011;10279;46.388;8.116;2022-11-20T16:09:10;1.53;;;1.30;;
20241;SDS011;10279;46.388;8.116;2022-11-20T16:11:37;1.37;;;1.10;;
20241;SDS011;10279;46.388;8.116;2022-11-20T16:14:05;1.10;;;1.00;;
20241;SDS011;10279;46.388;8.116;2022-11-20T16:16:52;2.27;;;1.20;;
20241;SDS011;10279;46.388;8.116;2022-11-20T16:19:19;1.80;;;1.10;;
20241;SDS011;10279;46.388;8.116;2022-11-20T16:21:46;2.77;;;1.30;;
20241;SDS011;10279;46.388;8.116;2022-11-20T16:24:14;1.63;;;1.20;;
20241;SDS011;10279;46.388;8.116;2022-11-20T16:26:42;2.00;;;1.30;;
20241;SDS011;10279;46.388;8.116;2022-11-20T16:29:10;2.27;;;1.23;;
20241;SDS011;10279;46.388;8.116;2022-11-20T16:31:37;0.97;;;0.90;;
20241;SDS011;10279;46.388;8.116;2022-11-20T16:34:06;1.10;;;1.00;;
20241;SDS011;10279;46.388;8.116;2022-11-20T16:36:41;1.53;;;1.33;;
20241;SDS011;10279;46.388;8.116;2022-11-20T16:39:10;2.23;;;1.10;;
20241;SDS011;10279;46.388;8.116;2022-11-20T16:41:37;1.37;;;1.23;;
20241;SDS011;10279;46.388;8.116;2022-11-20T16:44:09;3.57;;;2.60;;
20241;SDS011;10279;46.388;8.116;2022-11-20T16:46:37;4.63;;;2.30;;
20241;SDS011;10279;46.388;8.116;2022-11-20T16:49:08;2.77;;;1.40;;
20241;SDS011;10279;46.388;8.116;2022-11-20T16:51:37;2.37;;;1.50;;
20241;SDS011;10279;46.388;8.116;2022-11-20T16:54:05;2.97;;;1.80;;
20241;SDS011;10279;46.388;8.116;2022-11-20T16:56:33;1.67;;;1.47;;
20241;SDS011;10279;46.388;8.116;2022-11-20T16:59:01;2.30;;;1.63;;